createdAt,value
2022-09-15T00:00:35.906Z,89.21
2022-09-15T00:03:02.356Z,88.98
2022-09-15T00:05:28.776Z,89.17
2022-09-15T00:07:55.129Z,89.39
2022-09-15T00:10:21.609Z,89.26
2022-09-15T00:12:48.342Z,88.78
2022-09-15T00:15:16.840Z,89.07
2022-09-15T00:17:49.601Z,89.10
2022-09-15T00:20:20.485Z,88.58
2022-09-15T00:22:47.987Z,89.31
2022-09-15T00:25:15.224Z,89.67
2022-09-15T00:27:41.696Z,89.45
2022-09-15T00:30:08.611Z,89.66
2022-09-15T00:32:35.333Z,89.72
2022-09-15T00:35:01.774Z,90.14
2022-09-15T00:37:28.156Z,90.65
2022-09-15T00:39:54.586Z,91.04
2022-09-15T00:42:22.641Z,91.21
2022-09-15T00:44:53.684Z,91.45
2022-09-15T00:47:27.061Z,91.67
2022-09-15T00:49:59.467Z,92.06
2022-09-15T00:52:32.178Z,92.02
2022-09-15T00:55:04.597Z,92.40
2022-09-15T00:57:48.774Z,92.58
2022-09-15T01:00:19.365Z,92.85
2022-09-15T01:02:48.225Z,93.00
2022-09-15T01:05:17.622Z,93.03
2022-09-15T01:07:51.649Z,93.33
2022-09-15T01:10:31.301Z,93.43
2022-09-15T01:13:03.512Z,93.58
2022-09-15T01:15:40.311Z,93.78
2022-09-15T01:18:18.295Z,93.96
2022-09-15T01:20:50.348Z,94.04
2022-09-15T01:23:47.853Z,94.05
2022-09-15T01:26:23.447Z,94.07
2022-09-15T01:29:17.566Z,94.25
2022-09-15T01:32:11.192Z,94.35
2022-09-15T01:34:48.743Z,94.14
2022-09-15T01:37:21.037Z,94.31
2022-09-15T01:39:51.505Z,94.27
2022-09-15T01:42:19.502Z,94.17
2022-09-15T01:44:57.681Z,94.07
2022-09-15T01:47:28.245Z,93.47
2022-09-15T01:50:15.308Z,93.10
2022-09-15T01:52:45.417Z,93.19
2022-09-15T01:55:17.977Z,93.40
2022-09-15T01:57:45.483Z,93.17
2022-09-15T02:00:12.375Z,92.44
2022-09-15T02:02:48.739Z,92.12
2022-09-15T02:05:25.182Z,91.82
2022-09-15T02:08:23.001Z,91.68
2022-09-15T02:10:58.717Z,91.41
2022-09-15T02:13:38.051Z,91.14
2022-09-15T02:16:10.631Z,90.64
2022-09-15T02:18:47.186Z,90.75
2022-09-15T02:21:22.094Z,90.73
2022-09-15T02:23:52.974Z,91.10
2022-09-15T02:26:24.753Z,91.57
2022-09-15T02:28:54.079Z,92.25
2022-09-15T02:31:24.992Z,92.48
2022-09-15T02:33:57.859Z,92.86
2022-09-15T02:36:27.419Z,92.84
2022-09-15T02:38:59.441Z,93.41
2022-09-15T02:41:26.995Z,93.55
2022-09-15T02:43:53.391Z,93.61
2022-09-15T02:46:22.207Z,93.87
2022-09-15T02:48:48.770Z,93.86
2022-09-15T02:51:16.918Z,94.34
2022-09-15T02:53:44.614Z,94.23
2022-09-15T02:56:11.054Z,94.27
2022-09-15T02:58:37.576Z,93.84
2022-09-15T03:01:05.740Z,93.76
2022-09-15T03:03:33.428Z,94.11
2022-09-15T03:06:16.449Z,94.20
2022-09-15T03:08:44.455Z,93.89
2022-09-15T03:11:12.077Z,94.48
2022-09-15T03:13:39.363Z,94.63
2022-09-15T03:16:10.842Z,94.18
2022-09-15T03:18:38.458Z,94.16
2022-09-15T03:21:07.550Z,94.47
2022-09-15T03:23:34.173Z,94.25
2022-09-15T03:26:01.555Z,94.39
2022-09-15T03:28:28.655Z,94.41
2022-09-15T03:30:55.632Z,94.39
2022-09-15T03:33:23.374Z,94.42
2022-09-15T03:35:51.146Z,94.72
2022-09-15T03:38:17.960Z,94.73
2022-09-15T03:40:45.049Z,94.72
2022-09-15T03:43:18.055Z,94.83
2022-09-15T03:45:45.134Z,94.72
2022-09-15T03:48:11.680Z,95.02
2022-09-15T03:50:38.234Z,95.01
2022-09-15T03:53:04.675Z,94.97
2022-09-15T03:55:31.315Z,95.03
2022-09-15T03:57:57.808Z,94.86
2022-09-15T04:00:24.275Z,94.94
2022-09-15T04:02:50.890Z,95.23
2022-09-15T04:05:17.512Z,95.13
2022-09-15T04:07:43.965Z,95.21
2022-09-15T04:10:11.131Z,94.87
2022-09-15T04:12:37.752Z,94.97
2022-09-15T04:15:04.579Z,94.65
2022-09-15T04:17:31.205Z,94.83
2022-09-15T04:19:58.082Z,95.05
2022-09-15T04:22:24.619Z,95.03
2022-09-15T04:24:51.203Z,95.00
2022-09-15T04:27:17.610Z,95.15
2022-09-15T04:29:44.061Z,95.14
2022-09-15T04:32:10.567Z,95.24
2022-09-15T04:34:41.231Z,95.01
2022-09-15T04:37:07.984Z,95.12
2022-09-15T04:39:34.418Z,95.01
2022-09-15T04:42:01.147Z,94.81
2022-09-15T04:44:27.528Z,94.82
2022-09-15T04:46:54.401Z,94.66
2022-09-15T04:49:20.897Z,94.49
2022-09-15T04:51:47.375Z,94.52
2022-09-15T04:54:13.852Z,94.07
2022-09-15T04:56:40.296Z,94.12
2022-09-15T04:59:13.289Z,93.78
2022-09-15T05:01:40.234Z,93.73
2022-09-15T05:04:06.662Z,93.48
2022-09-15T05:06:34.913Z,93.53
2022-09-15T05:09:07.657Z,93.42
2022-09-15T05:11:36.374Z,93.21
2022-09-15T05:14:02.934Z,93.08
2022-09-15T05:16:30.154Z,92.87
2022-09-15T05:19:00.059Z,92.84
2022-09-15T05:21:27.473Z,92.85
2022-09-15T05:23:54.213Z,92.36
2022-09-15T05:26:23.779Z,92.25
2022-09-15T05:28:50.300Z,91.93
2022-09-15T05:31:25.168Z,91.90
2022-09-15T05:33:52.998Z,91.01
2022-09-15T05:36:23.653Z,90.72
2022-09-15T05:38:50.040Z,90.31
2022-09-15T05:41:18.181Z,90.79
2022-09-15T05:43:49.204Z,90.51
2022-09-15T05:46:17.964Z,90.60
2022-09-15T05:48:45.722Z,90.42
2022-09-15T05:51:12.812Z,90.01
2022-09-15T05:53:40.129Z,90.39
2022-09-15T05:56:11.867Z,90.22
2022-09-15T05:58:40.666Z,90.38
2022-09-15T06:01:11.261Z,90.27
2022-09-15T06:03:37.746Z,90.04
2022-09-15T06:06:06.178Z,89.64
2022-09-15T06:08:58.087Z,88.83
2022-09-15T06:11:30.632Z,89.03
2022-09-15T06:14:01.571Z,88.85
2022-09-15T06:16:32.056Z,89.55
2022-09-15T06:18:59.022Z,89.66
2022-09-15T06:21:28.940Z,89.63
2022-09-15T06:23:57.831Z,89.39
2022-09-15T06:26:24.954Z,89.07
2022-09-15T06:28:53.850Z,89.67
2022-09-15T06:32:39.071Z,89.60
2022-09-15T06:35:08.715Z,89.07
2022-09-15T06:37:35.245Z,88.84
2022-09-15T06:40:03.085Z,88.81
2022-09-15T06:42:29.638Z,88.72
2022-09-15T06:44:56.277Z,88.64
2022-09-15T06:47:22.747Z,88.69
2022-09-15T06:49:49.235Z,88.22
2022-09-15T06:52:15.697Z,87.77
2022-09-15T06:54:42.135Z,87.36
2022-09-15T06:57:08.565Z,86.46
2022-09-15T06:59:34.983Z,85.90
2022-09-15T07:02:05.051Z,86.05
2022-09-15T07:04:33.492Z,86.06
2022-09-15T07:06:59.911Z,86.07
2022-09-15T07:09:26.493Z,87.71
2022-09-15T07:11:53.245Z,87.72
2022-09-15T07:14:19.645Z,86.76
2022-09-15T07:16:46.165Z,86.54
2022-09-15T07:19:12.847Z,86.08
2022-09-15T07:21:39.271Z,85.54
2022-09-15T07:24:07.411Z,86.10
2022-09-15T07:26:34.470Z,86.49
2022-09-15T07:29:03.700Z,86.28
2022-09-15T07:31:32.604Z,86.12
2022-09-15T07:33:59.943Z,85.11
2022-09-15T07:36:26.787Z,85.57
2022-09-15T07:38:53.475Z,85.63
2022-09-15T07:41:26.067Z,84.85
2022-09-15T07:43:57.767Z,83.94
2022-09-15T07:46:25.786Z,83.11
2022-09-15T07:48:56.193Z,83.56
2022-09-15T07:51:23.325Z,83.83
2022-09-15T07:53:50.194Z,84.64
2022-09-15T07:56:18.437Z,85.10
2022-09-15T07:58:46.297Z,85.60
2022-09-15T08:01:14.753Z,85.66
2022-09-15T08:03:46.354Z,85.27
2022-09-15T08:06:13.628Z,86.27
2022-09-15T08:08:41.197Z,85.42
2022-09-15T08:11:08.689Z,84.29
2022-09-15T08:13:35.969Z,83.79
2022-09-15T08:16:11.351Z,84.12
2022-09-15T08:18:38.891Z,83.36
2022-09-15T08:21:07.194Z,82.46
2022-09-15T08:23:33.827Z,83.12
2022-09-15T08:26:00.558Z,82.02
2022-09-15T08:28:27.537Z,81.49
2022-09-15T08:31:01.514Z,80.65
2022-09-15T08:33:29.078Z,80.25
2022-09-15T08:36:01.337Z,81.72
2022-09-15T08:38:28.101Z,81.92
2022-09-15T08:41:01.810Z,81.24
2022-09-15T08:43:32.729Z,79.56
2022-09-15T08:46:06.072Z,78.23
2022-09-15T08:49:02.596Z,79.22
2022-09-15T08:51:37.217Z,78.67
2022-09-15T08:54:11.050Z,78.90
2022-09-15T08:56:40.099Z,78.71
2022-09-15T08:59:12.167Z,78.88
2022-09-15T09:02:03.951Z,78.48
2022-09-15T09:04:54.673Z,78.28
2022-09-15T09:07:59.763Z,76.29
2022-09-15T09:10:48.406Z,74.65
2022-09-15T09:13:31.982Z,73.89
2022-09-15T09:16:10.373Z,73.60
2022-09-15T09:18:58.740Z,73.53
2022-09-15T09:21:35.343Z,75.72
2022-09-15T09:24:06.324Z,75.97
2022-09-15T09:26:35.880Z,74.15
2022-09-15T09:29:27.895Z,73.60
2022-09-15T09:31:56.472Z,72.48
2022-09-15T09:34:33.481Z,71.97
2022-09-15T09:37:08.309Z,71.55
2022-09-15T09:39:34.866Z,70.12
2022-09-15T09:42:02.854Z,69.85
2022-09-15T09:44:32.230Z,68.83
2022-09-15T09:46:59.856Z,69.53
2022-09-15T09:49:30.878Z,68.87
2022-09-15T09:52:00.014Z,71.42
2022-09-15T09:54:28.701Z,71.38
2022-09-15T09:57:16.741Z,73.43
2022-09-15T09:59:45.213Z,72.43
2022-09-15T10:02:11.578Z,72.37
2022-09-15T10:05:05.761Z,71.07
2022-09-15T10:07:34.679Z,70.30
2022-09-15T10:10:02.014Z,69.80
2022-09-15T10:12:40.554Z,67.76
2022-09-15T10:15:20.369Z,68.51
2022-09-15T10:17:49.803Z,69.28
2022-09-15T10:20:35.651Z,67.54
2022-09-15T10:23:23.069Z,67.90
2022-09-15T10:25:59.029Z,69.81
2022-09-15T10:28:27.550Z,70.73
2022-09-15T10:31:15.783Z,71.20
2022-09-15T10:33:47.736Z,70.16
2022-09-15T10:36:17.392Z,69.32
2022-09-15T10:38:46.750Z,68.46
2022-09-15T10:41:30.673Z,68.57
2022-09-15T10:44:22.954Z,67.01
2022-09-15T10:47:05.689Z,66.70
2022-09-15T10:49:38.103Z,67.83
2022-09-15T10:52:41.749Z,67.68
2022-09-15T10:55:42.544Z,69.34
2022-09-15T10:58:39.016Z,70.34
2022-09-15T11:01:29.523Z,71.35
2022-09-15T11:04:00.133Z,69.66
2022-09-15T11:06:38.983Z,69.47
2022-09-15T11:09:11.415Z,69.20
2022-09-15T11:11:37.814Z,68.52
2022-09-15T11:14:26.056Z,68.53
2022-09-15T11:17:11.324Z,68.99
2022-09-15T11:19:57.625Z,68.52
2022-09-15T11:22:34.268Z,69.59
2022-09-15T11:25:10.703Z,69.86
2022-09-15T11:27:44.940Z,70.11
2022-09-15T11:30:25.467Z,70.49
2022-09-15T11:32:54.294Z,68.28
2022-09-15T11:35:33.230Z,69.71
2022-09-15T11:38:13.764Z,68.00
2022-09-15T11:40:47.829Z,68.08
2022-09-15T11:43:34.487Z,67.47
2022-09-15T11:46:02.899Z,63.59
2022-09-15T11:48:57.576Z,63.09
2022-09-15T11:51:27.001Z,60.99
2022-09-15T11:54:01.713Z,61.97
2022-09-15T11:56:36.482Z,61.13
2022-09-15T11:59:23.363Z,59.45
2022-09-15T12:01:59.299Z,58.25
2022-09-15T12:04:31.916Z,60.68
2022-09-15T12:07:08.729Z,63.78
2022-09-15T12:09:38.613Z,65.25
2022-09-15T12:12:15.410Z,64.61
2022-09-15T12:14:44.860Z,64.25
2022-09-15T12:17:34.118Z,65.26
2022-09-15T12:20:39.221Z,65.12
2022-09-15T12:23:24.395Z,66.28
2022-09-15T12:26:18.440Z,66.44
2022-09-15T12:28:54.075Z,65.32
2022-09-15T12:31:26.281Z,61.32
2022-09-15T12:33:57.580Z,62.47
2022-09-15T12:36:31.498Z,61.65
2022-09-15T12:38:59.760Z,61.79
2022-09-15T12:41:27.323Z,61.79
2022-09-15T12:43:55.991Z,60.91
2022-09-15T12:46:22.722Z,61.27
2022-09-15T12:48:49.994Z,62.04
2022-09-15T12:51:26.181Z,63.08
2022-09-15T12:54:02.822Z,63.59
2022-09-15T12:56:31.728Z,63.90
2022-09-15T12:59:07.086Z,63.07
2022-09-15T13:01:48.882Z,62.95
2022-09-15T13:04:43.533Z,63.06
2022-09-15T13:07:32.574Z,64.26
2022-09-15T13:10:27.873Z,64.46
2022-09-15T13:13:18.353Z,64.70
2022-09-15T13:15:47.366Z,63.12
2022-09-15T13:18:16.068Z,63.33
2022-09-15T13:20:53.931Z,63.93
2022-09-15T13:23:24.997Z,63.33
2022-09-15T13:25:56.592Z,63.75
2022-09-15T13:28:24.610Z,64.46
2022-09-15T13:31:01.521Z,64.92
2022-09-15T13:40:18.332Z,65.87
2022-09-15T13:43:03.346Z,65.85
2022-09-15T13:45:44.305Z,65.83
2022-09-15T13:48:19.691Z,65.87
2022-09-15T13:50:56.244Z,65.97
2022-09-15T13:53:46.820Z,65.88
2022-09-15T13:56:29.015Z,66.65
2022-09-15T13:59:11.561Z,67.35
2022-09-15T14:01:42.172Z,67.58
2022-09-15T14:04:16.876Z,67.49
2022-09-15T14:06:50.084Z,68.24
2022-09-15T14:09:20.673Z,68.07
2022-09-15T14:11:50.295Z,68.37
2022-09-15T14:14:34.757Z,68.51
2022-09-15T14:17:01.677Z,68.28
2022-09-15T14:19:28.094Z,67.84
2022-09-15T14:21:58.349Z,67.80
2022-09-15T14:24:31.571Z,68.04
2022-09-15T14:27:08.760Z,67.70
2022-09-15T14:29:40.244Z,67.74
2022-09-15T14:32:10.753Z,67.70
2022-09-15T14:34:38.355Z,67.87
2022-09-15T14:37:07.750Z,67.54
2022-09-15T14:39:37.311Z,66.96
2022-09-15T14:42:24.041Z,66.59
2022-09-15T14:47:39.517Z,66.48
2022-09-15T14:50:14.176Z,66.22
2022-09-15T14:52:43.335Z,66.53
2022-09-15T14:55:15.912Z,66.89
2022-09-15T14:57:48.885Z,64.94
2022-09-15T15:00:21.078Z,65.93
2022-09-15T15:02:58.295Z,65.72
2022-09-15T15:05:30.362Z,65.22
2022-09-15T15:07:57.746Z,65.75
2022-09-15T15:10:34.882Z,66.00
2022-09-15T15:16:33.694Z,63.88
2022-09-15T15:19:00.512Z,64.61
2022-09-15T15:21:38.040Z,65.10
2022-09-15T15:24:23.358Z,64.35
2022-09-15T15:26:50.637Z,64.53
2022-09-15T15:29:40.625Z,64.61
2022-09-15T15:32:13.408Z,64.71
2022-09-15T15:34:40.053Z,65.09
2022-09-15T15:37:21.340Z,63.95
2022-09-15T15:39:48.201Z,64.25
2022-09-15T15:42:16.145Z,64.80
2022-09-15T15:45:28.263Z,65.39
2022-09-15T15:47:54.940Z,65.96
2022-09-15T15:50:24.769Z,66.07
2022-09-15T15:52:52.486Z,65.87
2022-09-15T15:55:21.866Z,65.72
2022-09-15T15:57:51.032Z,64.62
2022-09-15T16:00:21.536Z,64.82
2022-09-15T16:02:48.906Z,64.01
2022-09-15T16:05:15.925Z,64.29
2022-09-15T16:07:46.812Z,63.63
2022-09-15T16:10:18.944Z,64.14
2022-09-15T16:12:45.338Z,63.71
2022-09-15T16:15:13.636Z,63.86
2022-09-15T16:17:44.423Z,63.49
2022-09-15T16:20:16.015Z,62.65
2022-09-15T16:22:42.793Z,63.07
2022-09-15T16:25:16.494Z,63.26
2022-09-15T16:27:42.908Z,63.25
2022-09-15T16:30:12.017Z,63.32
2022-09-15T16:32:40.049Z,63.06
2022-09-15T16:35:51.017Z,63.13
2022-09-15T16:38:19.724Z,63.03
2022-09-15T16:40:51.112Z,63.12
2022-09-15T16:43:21.381Z,63.44
2022-09-15T16:45:49.206Z,63.81
2022-09-15T16:48:15.730Z,63.74
2022-09-15T16:51:02.179Z,64.31
2022-09-15T16:53:30.978Z,64.58
2022-09-15T16:55:57.522Z,64.87
2022-09-15T16:58:24.121Z,65.02
2022-09-15T17:00:52.585Z,65.42
2022-09-15T17:03:21.709Z,65.90
2022-09-15T17:05:56.402Z,66.16
2022-09-15T17:08:31.359Z,66.58
2022-09-15T17:11:00.555Z,66.44
2022-09-15T17:13:30.474Z,66.83
2022-09-15T17:15:58.546Z,66.96
2022-09-15T17:18:25.789Z,67.32
2022-09-15T17:20:53.094Z,67.82
2022-09-15T17:23:24.890Z,68.41
2022-09-15T17:25:58.397Z,68.32
2022-09-15T17:28:31.412Z,68.59
2022-09-15T17:31:00.364Z,68.91
2022-09-15T17:33:28.362Z,69.26
2022-09-15T17:35:55.337Z,69.75
2022-09-15T17:38:22.376Z,70.03
2022-09-15T17:40:49.907Z,70.37
2022-09-15T17:43:21.385Z,70.76
2022-09-15T17:45:49.343Z,71.10
2022-09-15T17:48:16.492Z,71.68
2022-09-15T17:50:45.275Z,71.83
2022-09-15T17:53:13.905Z,72.13
2022-09-15T17:57:35.931Z,72.36
2022-09-15T18:00:02.705Z,72.60
2022-09-15T18:02:29.158Z,72.34
2022-09-15T18:04:56.389Z,72.56
2022-09-15T18:07:22.981Z,72.61
2022-09-15T18:09:49.342Z,72.86
2022-09-15T18:12:19.832Z,73.12
2022-09-15T18:14:49.215Z,73.16
2022-09-15T18:17:16.503Z,73.26
2022-09-15T18:19:42.945Z,73.29
2022-09-15T18:22:09.613Z,73.15
2022-09-15T18:24:36.009Z,73.35
2022-09-15T18:27:02.385Z,73.05
2022-09-15T18:29:28.780Z,72.73
2022-09-15T18:31:55.871Z,72.74
2022-09-15T18:34:22.312Z,72.83
2022-09-15T18:36:48.735Z,72.91
2022-09-15T18:39:15.222Z,71.73
2022-09-15T18:41:41.651Z,69.35
2022-09-15T18:44:08.074Z,67.65
2022-09-15T18:46:34.632Z,66.69
2022-09-15T18:49:02.700Z,65.58
2022-09-15T18:51:47.876Z,65.44
2022-09-15T18:54:15.712Z,66.65
2022-09-15T18:56:42.330Z,65.12
2022-09-15T18:59:10.408Z,65.16
2022-09-15T19:01:36.884Z,65.34
2022-09-15T19:04:03.393Z,64.78
2022-09-15T19:06:30.980Z,65.01
2022-09-15T19:08:57.489Z,64.96
2022-09-15T19:11:23.941Z,65.40
2022-09-15T19:13:53.395Z,65.18
2022-09-15T19:16:22.772Z,65.98
2022-09-15T19:18:50.134Z,66.76
2022-09-15T19:21:17.243Z,66.86
2022-09-15T19:23:46.311Z,66.84
2022-09-15T19:26:15.709Z,66.76
2022-09-15T19:28:44.592Z,66.52
2022-09-15T19:31:13.791Z,66.93
2022-09-15T19:33:40.354Z,67.05
2022-09-15T19:36:27.300Z,67.16
2022-09-15T19:38:54.672Z,67.23
2022-09-15T19:41:21.357Z,67.31
2022-09-15T19:43:47.830Z,67.59
2022-09-15T19:46:17.310Z,67.31
2022-09-15T19:48:47.876Z,67.62
2022-09-15T19:51:17.737Z,67.92
2022-09-15T19:53:44.865Z,67.93
2022-09-15T19:56:14.682Z,68.04
2022-09-15T19:58:41.346Z,68.50
2022-09-15T20:01:09.421Z,68.51
2022-09-15T20:03:36.411Z,68.75
2022-09-15T20:06:06.531Z,68.85
2022-09-15T20:08:36.775Z,68.90
2022-09-15T20:11:07.002Z,69.11
2022-09-15T20:13:33.665Z,69.01
2022-09-15T20:16:03.650Z,69.21
2022-09-15T20:18:33.638Z,68.75
2022-09-15T20:21:00.588Z,68.74
2022-09-15T20:23:32.931Z,68.96
2022-09-15T20:26:06.250Z,69.22
2022-09-15T20:28:34.017Z,69.52
2022-09-15T20:31:10.559Z,69.53
2022-09-15T20:33:39.534Z,69.97
2022-09-15T20:36:09.978Z,70.30
2022-09-15T20:38:37.816Z,70.53
2022-09-15T20:41:06.224Z,70.75
2022-09-15T20:43:37.717Z,70.98
2022-09-15T20:46:06.708Z,70.99
2022-09-15T20:48:39.266Z,71.27
2022-09-15T20:51:15.765Z,71.38
2022-09-15T20:53:44.618Z,71.86
2022-09-15T20:56:12.687Z,71.99
2022-09-15T20:58:39.623Z,72.32
2022-09-15T21:01:13.519Z,72.60
2022-09-15T21:03:42.332Z,72.75
2022-09-15T21:06:11.540Z,73.01
2022-09-15T21:08:38.118Z,72.71
2022-09-15T21:11:06.857Z,73.22
2022-09-15T21:13:37.077Z,73.41
2022-09-15T21:16:07.745Z,73.23
2022-09-15T21:18:36.326Z,73.44
2022-09-15T21:21:12.072Z,73.57
2022-09-15T21:23:49.602Z,73.55
2022-09-15T21:26:19.176Z,73.75
2022-09-15T21:28:46.207Z,73.70
2022-09-15T21:31:15.105Z,73.91
2022-09-15T21:33:42.184Z,73.99
2022-09-15T21:36:23.164Z,73.92
2022-09-15T21:38:51.414Z,73.85
2022-09-15T21:41:21.460Z,73.93
2022-09-15T21:43:48.835Z,73.87
2022-09-15T21:46:20.073Z,74.18
2022-09-15T21:48:47.560Z,73.98
2022-09-15T21:51:18.757Z,74.51
2022-09-15T21:53:50.231Z,74.74
2022-09-15T21:56:17.018Z,74.91
2022-09-15T21:58:43.914Z,75.03
2022-09-15T22:01:27.984Z,75.76
2022-09-15T22:04:00.116Z,75.91
2022-09-15T22:06:33.132Z,76.30
2022-09-15T22:09:04.972Z,76.44
2022-09-15T22:11:31.997Z,76.21
2022-09-15T22:13:58.690Z,76.49
2022-09-15T22:16:25.948Z,76.29
2022-09-15T22:18:52.960Z,76.02
2022-09-15T22:21:25.276Z,76.43
2022-09-15T22:23:54.856Z,76.94
2022-09-15T22:26:23.802Z,76.65
2022-09-15T22:28:50.220Z,76.76
2022-09-15T22:31:18.876Z,77.06
2022-09-15T22:33:45.798Z,77.61
2022-09-15T22:36:14.580Z,78.03
2022-09-15T22:38:41.149Z,77.84
2022-09-15T22:41:10.112Z,78.05
2022-09-15T22:43:36.710Z,78.10
2022-09-15T22:46:03.670Z,78.18
2022-09-15T22:48:30.253Z,78.01
2022-09-15T22:50:57.098Z,77.84
2022-09-15T22:53:23.648Z,77.84
2022-09-15T22:55:50.694Z,77.86
2022-09-15T22:58:17.240Z,77.62
2022-09-15T23:00:43.801Z,77.62
2022-09-15T23:03:11.020Z,77.83
2022-09-15T23:05:37.713Z,78.43
2022-09-15T23:08:04.188Z,78.32
2022-09-15T23:10:31.462Z,78.40
2022-09-15T23:12:59.442Z,78.34
2022-09-15T23:15:26.226Z,78.66
2022-09-15T23:17:52.752Z,78.84
2022-09-15T23:20:19.301Z,79.58
2022-09-15T23:22:45.708Z,79.65
2022-09-15T23:25:12.080Z,79.75
2022-09-15T23:27:38.653Z,79.82
2022-09-15T23:30:05.492Z,79.46
2022-09-15T23:32:31.965Z,79.21
2022-09-15T23:34:58.498Z,79.22
2022-09-15T23:37:24.870Z,79.32
2022-09-15T23:39:52.253Z,79.47
2022-09-15T23:42:19.128Z,79.29
2022-09-15T23:44:45.768Z,79.49
2022-09-15T23:47:12.142Z,79.39
2022-09-15T23:49:38.588Z,79.61
2022-09-15T23:52:05.003Z,80.07
2022-09-15T23:54:31.435Z,80.19
2022-09-15T23:56:57.994Z,80.14
